sensor_id;sensor_type;location;lat;lon;timestamp;P1;durP1;ratioP1;P2;durP2;ratioP2
44728;SDS011;30457;53.590;9.922;2023-05-10T00:03:11;4.97;;;2.55;;
44728;SDS011;30457;53.590;9.922;2023-05-10T00:07:36;4.00;;;2.60;;
44728;SDS011;30457;53.590;9.922;2023-05-10T00:12:02;3.20;;;2.50;;
44728;SDS011;30457;53.590;9.922;2023-05-10T00:16:28;3.78;;;2.40;;
44728;SDS011;30457;53.590;9.922;2023-05-10T00:20:53;2.95;;;2.50;;
44728;SDS011;30457;53.590;9.922;2023-05-10T00:25:19;3.55;;;2.53;;
44728;SDS011;30457;53.590;9.922;2023-05-10T00:29:46;3.55;;;2.35;;
44728;SDS011;30457;53.590;9.922;2023-05-10T00:34:12;4.13;;;2.38;;
44728;SDS011;30457;53.590;9.922;2023-05-10T00:38:37;2.95;;;2.53;;
44728;SDS011;30457;53.590;9.922;2023-05-10T00:43:03;4.50;;;2.47;;
44728;SDS011;30457;53.590;9.922;2023-05-10T00:47:28;3.75;;;2.33;;
44728;SDS011;30457;53.590;9.922;2023-05-10T00:51:55;2.70;;;2.30;;
44728;SDS011;30457;53.590;9.922;2023-05-10T00:56:20;5.18;;;2.25;;
44728;SDS011;30457;53.590;9.922;2023-05-10T01:00:48;2.78;;;2.20;;
44728;SDS011;30457;53.590;9.922;2023-05-10T01:05:14;2.55;;;2.20;;
44728;SDS011;30457;53.590;9.922;2023-05-10T01:09:40;3.35;;;2.92;;
44728;SDS011;30457;53.590;9.922;2023-05-10T01:14:05;3.50;;;2.47;;
44728;SDS011;30457;53.590;9.922;2023-05-10T01:18:36;4.53;;;2.20;;
44728;SDS011;30457;53.590;9.922;2023-05-10T01:23:19;8.43;;;2.95;;
44728;SDS011;30457;53.590;9.922;2023-05-10T01:32:28;6.70;;;3.83;;
44728;SDS011;30457;53.590;9.922;2023-05-10T01:37:13;4.60;;;2.67;;
44728;SDS011;30457;53.590;9.922;2023-05-10T01:41:55;8.27;;;2.60;;
44728;SDS011;30457;53.590;9.922;2023-05-10T01:46:34;3.00;;;2.65;;
44728;SDS011;30457;53.590;9.922;2023-05-10T01:51:02;2.88;;;2.22;;
44728;SDS011;30457;53.590;9.922;2023-05-10T01:55:32;3.25;;;2.58;;
44728;SDS011;30457;53.590;9.922;2023-05-10T02:00:06;2.50;;;2.30;;
44728;SDS011;30457;53.590;9.922;2023-05-10T02:04:39;5.93;;;2.67;;
44728;SDS011;30457;53.590;9.922;2023-05-10T02:09:06;3.03;;;2.13;;
44728;SDS011;30457;53.590;9.922;2023-05-10T02:13:34;8.40;;;2.63;;
44728;SDS011;30457;53.590;9.922;2023-05-10T02:18:02;5.22;;;2.92;;
44728;SDS011;30457;53.590;9.922;2023-05-10T02:22:28;4.43;;;2.70;;
44728;SDS011;30457;53.590;9.922;2023-05-10T02:26:55;3.25;;;2.38;;
44728;SDS011;30457;53.590;9.922;2023-05-10T02:31:21;3.78;;;2.50;;
44728;SDS011;30457;53.590;9.922;2023-05-10T02:35:47;9.35;;;2.55;;
44728;SDS011;30457;53.590;9.922;2023-05-10T02:40:15;5.53;;;2.63;;
44728;SDS011;30457;53.590;9.922;2023-05-10T02:44:42;5.78;;;2.92;;
44728;SDS011;30457;53.590;9.922;2023-05-10T02:49:10;2.45;;;2.25;;
44728;SDS011;30457;53.590;9.922;2023-05-10T02:53:36;2.97;;;2.10;;
44728;SDS011;30457;53.590;9.922;2023-05-10T02:58:05;3.13;;;2.63;;
44728;SDS011;30457;53.590;9.922;2023-05-10T03:02:31;5.35;;;2.72;;
44728;SDS011;30457;53.590;9.922;2023-05-10T03:06:58;4.60;;;3.15;;
44728;SDS011;30457;53.590;9.922;2023-05-10T03:11:28;3.85;;;2.42;;
44728;SDS011;30457;53.590;9.922;2023-05-10T03:16:06;5.95;;;2.65;;
44728;SDS011;30457;53.590;9.922;2023-05-10T03:20:35;6.22;;;3.13;;
44728;SDS011;30457;53.590;9.922;2023-05-10T03:25:06;3.20;;;2.83;;
44728;SDS011;30457;53.590;9.922;2023-05-10T03:29:37;6.88;;;2.90;;
44728;SDS011;30457;53.590;9.922;2023-05-10T03:34:04;3.35;;;2.70;;
44728;SDS011;30457;53.590;9.922;2023-05-10T03:38:31;5.35;;;2.63;;
44728;SDS011;30457;53.590;9.922;2023-05-10T03:42:57;4.35;;;3.17;;
44728;SDS011;30457;53.590;9.922;2023-05-10T03:47:23;3.53;;;2.58;;
44728;SDS011;30457;53.590;9.922;2023-05-10T03:51:49;4.45;;;2.72;;
44728;SDS011;30457;53.590;9.922;2023-05-10T03:56:15;3.03;;;2.47;;
44728;SDS011;30457;53.590;9.922;2023-05-10T04:00:40;5.45;;;2.75;;
44728;SDS011;30457;53.590;9.922;2023-05-10T04:05:09;3.38;;;2.55;;
44728;SDS011;30457;53.590;9.922;2023-05-10T04:09:35;2.88;;;2.20;;
44728;SDS011;30457;53.590;9.922;2023-05-10T04:14:00;3.38;;;2.47;;
44728;SDS011;30457;53.590;9.922;2023-05-10T04:18:26;4.88;;;2.72;;
44728;SDS011;30457;53.590;9.922;2023-05-10T04:22:52;7.20;;;3.67;;
44728;SDS011;30457;53.590;9.922;2023-05-10T04:27:17;4.03;;;2.78;;
44728;SDS011;30457;53.590;9.922;2023-05-10T04:31:43;13.48;;;2.95;;
44728;SDS011;30457;53.590;9.922;2023-05-10T04:36:08;3.72;;;2.50;;
44728;SDS011;30457;53.590;9.922;2023-05-10T04:40:34;4.88;;;2.58;;
44728;SDS011;30457;53.590;9.922;2023-05-10T04:45:00;8.10;;;2.58;;
44728;SDS011;30457;53.590;9.922;2023-05-10T04:49:26;11.38;;;2.97;;
44728;SDS011;30457;53.590;9.922;2023-05-10T04:53:51;7.30;;;3.08;;
44728;SDS011;30457;53.590;9.922;2023-05-10T04:58:18;3.60;;;2.90;;
44728;SDS011;30457;53.590;9.922;2023-05-10T05:02:44;4.47;;;3.00;;
44728;SDS011;30457;53.590;9.922;2023-05-10T05:07:10;3.65;;;2.97;;
44728;SDS011;30457;53.590;9.922;2023-05-10T05:11:36;4.57;;;3.05;;
44728;SDS011;30457;53.590;9.922;2023-05-10T05:16:02;9.02;;;3.20;;
44728;SDS011;30457;53.590;9.922;2023-05-10T05:20:27;3.55;;;2.95;;
44728;SDS011;30457;53.590;9.922;2023-05-10T05:24:56;4.03;;;2.75;;
44728;SDS011;30457;53.590;9.922;2023-05-10T05:29:23;5.90;;;2.92;;
44728;SDS011;30457;53.590;9.922;2023-05-10T05:33:49;4.78;;;2.70;;
44728;SDS011;30457;53.590;9.922;2023-05-10T05:38:14;6.03;;;2.78;;
44728;SDS011;30457;53.590;9.922;2023-05-10T05:42:41;7.78;;;3.25;;
44728;SDS011;30457;53.590;9.922;2023-05-10T05:47:07;4.25;;;2.47;;
44728;SDS011;30457;53.590;9.922;2023-05-10T05:51:32;5.45;;;2.95;;
44728;SDS011;30457;53.590;9.922;2023-05-10T05:55:59;13.10;;;4.22;;
44728;SDS011;30457;53.590;9.922;2023-05-10T06:00:25;7.10;;;2.88;;
44728;SDS011;30457;53.590;9.922;2023-05-10T06:04:51;6.45;;;3.55;;
44728;SDS011;30457;53.590;9.922;2023-05-10T06:09:16;3.92;;;3.00;;
44728;SDS011;30457;53.590;9.922;2023-05-10T06:13:42;6.03;;;2.65;;
44728;SDS011;30457;53.590;9.922;2023-05-10T06:18:07;5.07;;;3.05;;
44728;SDS011;30457;53.590;9.922;2023-05-10T06:22:33;3.75;;;2.90;;
44728;SDS011;30457;53.590;9.922;2023-05-10T06:26:58;4.05;;;3.38;;
44728;SDS011;30457;53.590;9.922;2023-05-10T06:31:25;3.83;;;2.80;;
44728;SDS011;30457;53.590;9.922;2023-05-10T06:35:51;4.97;;;2.83;;
44728;SDS011;30457;53.590;9.922;2023-05-10T06:40:17;6.80;;;3.25;;
44728;SDS011;30457;53.590;9.922;2023-05-10T06:44:43;6.95;;;3.00;;
44728;SDS011;30457;53.590;9.922;2023-05-10T06:49:08;5.28;;;2.83;;
44728;SDS011;30457;53.590;9.922;2023-05-10T06:53:34;5.97;;;3.10;;
44728;SDS011;30457;53.590;9.922;2023-05-10T06:58:00;5.65;;;3.15;;
44728;SDS011;30457;53.590;9.922;2023-05-10T07:02:26;3.40;;;2.83;;
44728;SDS011;30457;53.590;9.922;2023-05-10T07:06:51;5.80;;;2.95;;
44728;SDS011;30457;53.590;9.922;2023-05-10T07:11:18;5.50;;;2.90;;
44728;SDS011;30457;53.590;9.922;2023-05-10T07:15:43;4.25;;;3.17;;
44728;SDS011;30457;53.590;9.922;2023-05-10T07:20:09;3.63;;;3.10;;
44728;SDS011;30457;53.590;9.922;2023-05-10T07:24:35;4.68;;;3.63;;
44728;SDS011;30457;53.590;9.922;2023-05-10T07:29:01;3.67;;;3.08;;
44728;SDS011;30457;53.590;9.922;2023-05-10T07:33:27;3.13;;;2.80;;
44728;SDS011;30457;53.590;9.922;2023-05-10T07:37:53;3.60;;;2.95;;
44728;SDS011;30457;53.590;9.922;2023-05-10T07:42:18;10.40;;;4.00;;
44728;SDS011;30457;53.590;9.922;2023-05-10T07:46:44;5.20;;;3.00;;
44728;SDS011;30457;53.590;9.922;2023-05-10T07:51:09;4.03;;;2.80;;
44728;SDS011;30457;53.590;9.922;2023-05-10T07:55:35;3.80;;;2.92;;
44728;SDS011;30457;53.590;9.922;2023-05-10T08:00:01;3.47;;;2.85;;
44728;SDS011;30457;53.590;9.922;2023-05-10T08:04:27;7.25;;;3.30;;
44728;SDS011;30457;53.590;9.922;2023-05-10T08:08:52;5.25;;;2.88;;
44728;SDS011;30457;53.590;9.922;2023-05-10T08:13:19;4.53;;;3.42;;
44728;SDS011;30457;53.590;9.922;2023-05-10T08:17:44;3.85;;;3.42;;
44728;SDS011;30457;53.590;9.922;2023-05-10T08:22:10;4.47;;;2.65;;
44728;SDS011;30457;53.590;9.922;2023-05-10T08:26:35;3.30;;;2.60;;
44728;SDS011;30457;53.590;9.922;2023-05-10T08:31:01;4.68;;;3.10;;
44728;SDS011;30457;53.590;9.922;2023-05-10T08:35:26;2.97;;;2.63;;
44728;SDS011;30457;53.590;9.922;2023-05-10T08:39:52;6.18;;;2.63;;
44728;SDS011;30457;53.590;9.922;2023-05-10T08:44:17;3.72;;;2.60;;
44728;SDS011;30457;53.590;9.922;2023-05-10T08:48:44;3.85;;;2.95;;
44728;SDS011;30457;53.590;9.922;2023-05-10T08:53:11;7.15;;;3.00;;
44728;SDS011;30457;53.590;9.922;2023-05-10T08:57:38;3.70;;;3.00;;
44728;SDS011;30457;53.590;9.922;2023-05-10T09:02:04;3.53;;;3.22;;
44728;SDS011;30457;53.590;9.922;2023-05-10T09:06:30;9.80;;;3.58;;
44728;SDS011;30457;53.590;9.922;2023-05-10T09:10:57;3.90;;;2.55;;
44728;SDS011;30457;53.590;9.922;2023-05-10T09:15:22;6.45;;;3.22;;
44728;SDS011;30457;53.590;9.922;2023-05-10T09:19:48;5.22;;;3.40;;
44728;SDS011;30457;53.590;9.922;2023-05-10T09:24:14;3.25;;;2.83;;
44728;SDS011;30457;53.590;9.922;2023-05-10T09:28:56;3.42;;;2.92;;
44728;SDS011;30457;53.590;9.922;2023-05-10T09:33:22;5.40;;;3.15;;
44728;SDS011;30457;53.590;9.922;2023-05-10T09:37:49;3.83;;;3.35;;
44728;SDS011;30457;53.590;9.922;2023-05-10T09:42:17;4.90;;;3.35;;
44728;SDS011;30457;53.590;9.922;2023-05-10T09:46:48;3.22;;;2.92;;
44728;SDS011;30457;53.590;9.922;2023-05-10T09:51:18;4.78;;;3.10;;
44728;SDS011;30457;53.590;9.922;2023-05-10T09:55:47;5.28;;;3.53;;
44728;SDS011;30457;53.590;9.922;2023-05-10T10:00:18;5.72;;;3.50;;
44728;SDS011;30457;53.590;9.922;2023-05-10T10:04:45;4.20;;;3.00;;
44728;SDS011;30457;53.590;9.922;2023-05-10T10:09:14;3.85;;;3.40;;
44728;SDS011;30457;53.590;9.922;2023-05-10T10:13:40;3.92;;;3.22;;
44728;SDS011;30457;53.590;9.922;2023-05-10T10:18:05;4.40;;;3.55;;
44728;SDS011;30457;53.590;9.922;2023-05-10T10:22:32;5.68;;;3.67;;
44728;SDS011;30457;53.590;9.922;2023-05-10T10:27:04;6.55;;;3.55;;
44728;SDS011;30457;53.590;9.922;2023-05-10T10:32:03;9.13;;;5.80;;
44728;SDS011;30457;53.590;9.922;2023-05-10T10:36:44;5.38;;;3.75;;
44728;SDS011;30457;53.590;9.922;2023-05-10T10:41:27;8.23;;;4.10;;
44728;SDS011;30457;53.590;9.922;2023-05-10T10:46:10;5.15;;;3.63;;
44728;SDS011;30457;53.590;9.922;2023-05-10T10:50:46;5.05;;;4.28;;
44728;SDS011;30457;53.590;9.922;2023-05-10T10:55:16;4.38;;;3.65;;
44728;SDS011;30457;53.590;9.922;2023-05-10T10:59:43;5.22;;;3.70;;
44728;SDS011;30457;53.590;9.922;2023-05-10T11:08:41;5.38;;;3.78;;
44728;SDS011;30457;53.590;9.922;2023-05-10T11:13:10;10.48;;;4.38;;
44728;SDS011;30457;53.590;9.922;2023-05-10T11:17:36;6.47;;;4.55;;
44728;SDS011;30457;53.590;9.922;2023-05-10T11:26:31;5.45;;;4.57;;
44728;SDS011;30457;53.590;9.922;2023-05-10T11:30:58;5.93;;;4.25;;
44728;SDS011;30457;53.590;9.922;2023-05-10T11:35:24;5.60;;;4.40;;
44728;SDS011;30457;53.590;9.922;2023-05-10T11:39:54;7.72;;;4.35;;
44728;SDS011;30457;53.590;9.922;2023-05-10T11:44:19;6.75;;;4.28;;
44728;SDS011;30457;53.590;9.922;2023-05-10T11:48:45;6.88;;;4.28;;
44728;SDS011;30457;53.590;9.922;2023-05-10T11:53:14;5.55;;;4.05;;
44728;SDS011;30457;53.590;9.922;2023-05-10T11:57:39;6.25;;;4.35;;
44728;SDS011;30457;53.590;9.922;2023-05-10T12:02:06;4.38;;;3.47;;
44728;SDS011;30457;53.590;9.922;2023-05-10T12:06:32;4.55;;;3.58;;
44728;SDS011;30457;53.590;9.922;2023-05-10T12:11:06;3.97;;;3.03;;
44728;SDS011;30457;53.590;9.922;2023-05-10T12:15:33;7.35;;;3.72;;
44728;SDS011;30457;53.590;9.922;2023-05-10T12:19:59;6.65;;;4.65;;
44728;SDS011;30457;53.590;9.922;2023-05-10T12:24:38;5.00;;;3.67;;
44728;SDS011;30457;53.590;9.922;2023-05-10T12:29:19;4.93;;;3.83;;
44728;SDS011;30457;53.590;9.922;2023-05-10T12:33:45;6.72;;;3.60;;
44728;SDS011;30457;53.590;9.922;2023-05-10T12:38:25;3.88;;;3.03;;
44728;SDS011;30457;53.590;9.922;2023-05-10T12:43:03;3.83;;;3.13;;
44728;SDS011;30457;53.590;9.922;2023-05-10T12:47:28;5.40;;;2.88;;
44728;SDS011;30457;53.590;9.922;2023-05-10T12:51:54;6.10;;;4.03;;
44728;SDS011;30457;53.590;9.922;2023-05-10T12:56:20;3.40;;;3.10;;
44728;SDS011;30457;53.590;9.922;2023-05-10T13:00:46;3.78;;;3.25;;
44728;SDS011;30457;53.590;9.922;2023-05-10T13:05:11;5.78;;;4.32;;
44728;SDS011;30457;53.590;9.922;2023-05-10T13:09:38;4.78;;;3.83;;
44728;SDS011;30457;53.590;9.922;2023-05-10T13:14:03;4.90;;;4.40;;
44728;SDS011;30457;53.590;9.922;2023-05-10T13:18:29;4.82;;;3.90;;
44728;SDS011;30457;53.590;9.922;2023-05-10T13:22:55;5.90;;;3.97;;
44728;SDS011;30457;53.590;9.922;2023-05-10T13:27:21;4.60;;;3.83;;
44728;SDS011;30457;53.590;9.922;2023-05-10T13:31:46;3.60;;;3.30;;
44728;SDS011;30457;53.590;9.922;2023-05-10T13:36:12;5.82;;;3.65;;
44728;SDS011;30457;53.590;9.922;2023-05-10T13:40:37;3.75;;;3.22;;
44728;SDS011;30457;53.590;9.922;2023-05-10T13:45:03;5.28;;;3.90;;
44728;SDS011;30457;53.590;9.922;2023-05-10T13:49:29;5.35;;;4.25;;
44728;SDS011;30457;53.590;9.922;2023-05-10T13:53:54;4.00;;;3.47;;
44728;SDS011;30457;53.590;9.922;2023-05-10T13:58:20;4.55;;;3.72;;
44728;SDS011;30457;53.590;9.922;2023-05-10T14:02:46;10.95;;;3.70;;
44728;SDS011;30457;53.590;9.922;2023-05-10T14:07:11;4.20;;;3.85;;
44728;SDS011;30457;53.590;9.922;2023-05-10T14:11:37;5.20;;;4.22;;
44728;SDS011;30457;53.590;9.922;2023-05-10T14:16:06;4.72;;;3.60;;
44728;SDS011;30457;53.590;9.922;2023-05-10T14:20:32;3.78;;;3.42;;
44728;SDS011;30457;53.590;9.922;2023-05-10T14:24:58;4.68;;;3.65;;
44728;SDS011;30457;53.590;9.922;2023-05-10T14:29:24;3.88;;;3.47;;
44728;SDS011;30457;53.590;9.922;2023-05-10T14:33:50;3.25;;;2.95;;
44728;SDS011;30457;53.590;9.922;2023-05-10T14:38:15;4.07;;;3.58;;
44728;SDS011;30457;53.590;9.922;2023-05-10T14:42:41;8.82;;;3.70;;
44728;SDS011;30457;53.590;9.922;2023-05-10T14:47:07;3.53;;;3.22;;
44728;SDS011;30457;53.590;9.922;2023-05-10T14:51:33;4.97;;;3.70;;
44728;SDS011;30457;53.590;9.922;2023-05-10T14:55:59;4.20;;;3.60;;
44728;SDS011;30457;53.590;9.922;2023-05-10T15:00:26;6.22;;;3.40;;
44728;SDS011;30457;53.590;9.922;2023-05-10T15:04:53;3.63;;;3.08;;
44728;SDS011;30457;53.590;9.922;2023-05-10T15:09:19;4.47;;;3.63;;
44728;SDS011;30457;53.590;9.922;2023-05-10T15:13:45;3.60;;;3.10;;
44728;SDS011;30457;53.590;9.922;2023-05-10T15:18:10;3.58;;;3.28;;
44728;SDS011;30457;53.590;9.922;2023-05-10T15:22:36;4.13;;;3.42;;
44728;SDS011;30457;53.590;9.922;2023-05-10T15:27:03;3.65;;;3.33;;
44728;SDS011;30457;53.590;9.922;2023-05-10T15:31:28;4.25;;;3.10;;
44728;SDS011;30457;53.590;9.922;2023-05-10T15:35:54;4.93;;;4.45;;
44728;SDS011;30457;53.590;9.922;2023-05-10T15:40:20;3.20;;;2.90;;
44728;SDS011;30457;53.590;9.922;2023-05-10T15:44:45;4.22;;;3.83;;
44728;SDS011;30457;53.590;9.922;2023-05-10T15:49:15;4.25;;;3.53;;
44728;SDS011;30457;53.590;9.922;2023-05-10T15:53:40;3.83;;;3.42;;
44728;SDS011;30457;53.590;9.922;2023-05-10T15:58:06;4.05;;;3.28;;
44728;SDS011;30457;53.590;9.922;2023-05-10T16:02:31;3.42;;;2.95;;
44728;SDS011;30457;53.590;9.922;2023-05-10T16:06:57;3.90;;;3.13;;
44728;SDS011;30457;53.590;9.922;2023-05-10T16:11:22;4.45;;;3.30;;
44728;SDS011;30457;53.590;9.922;2023-05-10T16:15:48;3.08;;;2.60;;
44728;SDS011;30457;53.590;9.922;2023-05-10T16:20:13;4.07;;;2.75;;
44728;SDS011;30457;53.590;9.922;2023-05-10T16:24:39;2.95;;;2.53;;
44728;SDS011;30457;53.590;9.922;2023-05-10T16:29:06;4.47;;;2.28;;
44728;SDS011;30457;53.590;9.922;2023-05-10T16:33:32;2.47;;;2.28;;
44728;SDS011;30457;53.590;9.922;2023-05-10T16:37:57;3.80;;;2.25;;
44728;SDS011;30457;53.590;9.922;2023-05-10T16:42:23;2.67;;;2.47;;
44728;SDS011;30457;53.590;9.922;2023-05-10T16:46:50;5.22;;;2.67;;
44728;SDS011;30457;53.590;9.922;2023-05-10T16:51:16;2.50;;;2.20;;
44728;SDS011;30457;53.590;9.922;2023-05-10T16:55:42;5.10;;;2.42;;
44728;SDS011;30457;53.590;9.922;2023-05-10T17:00:08;3.33;;;2.17;;
44728;SDS011;30457;53.590;9.922;2023-05-10T17:04:35;4.35;;;2.53;;
44728;SDS011;30457;53.590;9.922;2023-05-10T17:09:01;2.90;;;2.65;;
44728;SDS011;30457;53.590;9.922;2023-05-10T17:13:28;5.35;;;2.50;;
44728;SDS011;30457;53.590;9.922;2023-05-10T17:17:53;5.22;;;2.40;;
44728;SDS011;30457;53.590;9.922;2023-05-10T17:22:19;2.33;;;2.13;;
44728;SDS011;30457;53.590;9.922;2023-05-10T17:26:45;2.22;;;2.03;;
44728;SDS011;30457;53.590;9.922;2023-05-10T17:31:10;3.03;;;2.20;;
44728;SDS011;30457;53.590;9.922;2023-05-10T17:35:36;3.33;;;2.90;;
44728;SDS011;30457;53.590;9.922;2023-05-10T17:40:01;5.45;;;2.90;;
44728;SDS011;30457;53.590;9.922;2023-05-10T17:44:29;4.35;;;2.78;;
44728;SDS011;30457;53.590;9.922;2023-05-10T17:48:55;2.92;;;2.70;;
44728;SDS011;30457;53.590;9.922;2023-05-10T17:53:20;2.70;;;2.50;;
44728;SDS011;30457;53.590;9.922;2023-05-10T17:57:46;2.83;;;2.55;;
44728;SDS011;30457;53.590;9.922;2023-05-10T18:02:12;2.95;;;2.65;;
44728;SDS011;30457;53.590;9.922;2023-05-10T18:06:37;2.90;;;2.63;;
44728;SDS011;30457;53.590;9.922;2023-05-10T18:11:03;2.72;;;2.50;;
44728;SDS011;30457;53.590;9.922;2023-05-10T18:15:29;3.50;;;2.53;;
44728;SDS011;30457;53.590;9.922;2023-05-10T18:19:55;3.40;;;2.83;;
44728;SDS011;30457;53.590;9.922;2023-05-10T18:24:21;2.60;;;2.28;;
44728;SDS011;30457;53.590;9.922;2023-05-10T18:28:46;4.65;;;2.70;;
44728;SDS011;30457;53.590;9.922;2023-05-10T18:33:12;2.83;;;2.47;;
44728;SDS011;30457;53.590;9.922;2023-05-10T18:37:37;4.03;;;2.78;;
44728;SDS011;30457;53.590;9.922;2023-05-10T18:42:03;4.28;;;2.92;;
44728;SDS011;30457;53.590;9.922;2023-05-10T18:46:29;3.03;;;2.22;;
44728;SDS011;30457;53.590;9.922;2023-05-10T18:50:55;3.47;;;2.38;;
44728;SDS011;30457;53.590;9.922;2023-05-10T18:55:22;2.88;;;2.13;;
44728;SDS011;30457;53.590;9.922;2023-05-10T18:59:49;2.63;;;2.03;;
44728;SDS011;30457;53.590;9.922;2023-05-10T19:04:15;2.22;;;1.88;;
44728;SDS011;30457;53.590;9.922;2023-05-10T19:08:40;4.72;;;2.17;;
44728;SDS011;30457;53.590;9.922;2023-05-10T19:13:06;2.97;;;1.80;;
44728;SDS011;30457;53.590;9.922;2023-05-10T19:17:31;4.50;;;2.00;;
44728;SDS011;30457;53.590;9.922;2023-05-10T19:21:57;1.73;;;1.60;;
44728;SDS011;30457;53.590;9.922;2023-05-10T19:26:22;1.90;;;1.75;;
44728;SDS011;30457;53.590;9.922;2023-05-10T19:30:48;2.97;;;2.45;;
44728;SDS011;30457;53.590;9.922;2023-05-10T19:35:14;4.25;;;2.00;;
44728;SDS011;30457;53.590;9.922;2023-05-10T19:39:40;2.22;;;1.70;;
44728;SDS011;30457;53.590;9.922;2023-05-10T19:44:06;2.22;;;1.92;;
44728;SDS011;30457;53.590;9.922;2023-05-10T19:48:31;2.30;;;1.77;;
44728;SDS011;30457;53.590;9.922;2023-05-10T19:52:57;1.77;;;1.67;;
44728;SDS011;30457;53.590;9.922;2023-05-10T19:57:24;2.20;;;2.00;;
44728;SDS011;30457;53.590;9.922;2023-05-10T20:01:50;2.40;;;2.20;;
44728;SDS011;30457;53.590;9.922;2023-05-10T20:06:15;2.30;;;2.10;;
44728;SDS011;30457;53.590;9.922;2023-05-10T20:10:41;2.80;;;2.20;;
44728;SDS011;30457;53.590;9.922;2023-05-10T20:15:06;2.85;;;2.10;;
44728;SDS011;30457;53.590;9.922;2023-05-10T20:19:32;3.05;;;2.63;;
44728;SDS011;30457;53.590;9.922;2023-05-10T20:23:58;2.28;;;2.08;;
44728;SDS011;30457;53.590;9.922;2023-05-10T20:28:23;2.88;;;2.67;;
44728;SDS011;30457;53.590;9.922;2023-05-10T20:32:50;2.50;;;2.30;;
44728;SDS011;30457;53.590;9.922;2023-05-10T20:37:16;3.50;;;2.72;;
44728;SDS011;30457;53.590;9.922;2023-05-10T20:41:42;3.60;;;2.92;;
44728;SDS011;30457;53.590;9.922;2023-05-10T20:46:08;3.63;;;2.95;;
44728;SDS011;30457;53.590;9.922;2023-05-10T20:50:34;4.47;;;3.58;;
44728;SDS011;30457;53.590;9.922;2023-05-10T20:54:59;3.05;;;2.75;;
44728;SDS011;30457;53.590;9.922;2023-05-10T20:59:25;4.90;;;3.38;;
44728;SDS011;30457;53.590;9.922;2023-05-10T21:03:50;3.58;;;2.53;;
44728;SDS011;30457;53.590;9.922;2023-05-10T21:08:16;4.38;;;3.30;;
44728;SDS011;30457;53.590;9.922;2023-05-10T21:12:42;5.07;;;3.38;;
44728;SDS011;30457;53.590;9.922;2023-05-10T21:17:07;3.72;;;2.58;;
44728;SDS011;30457;53.590;9.922;2023-05-10T21:21:33;4.78;;;3.03;;
44728;SDS011;30457;53.590;9.922;2023-05-10T21:25:59;6.88;;;3.72;;
44728;SDS011;30457;53.590;9.922;2023-05-10T21:30:27;7.70;;;4.43;;
44728;SDS011;30457;53.590;9.922;2023-05-10T21:34:52;6.43;;;3.90;;
44728;SDS011;30457;53.590;9.922;2023-05-10T21:39:18;5.45;;;3.80;;
44728;SDS011;30457;53.590;9.922;2023-05-10T21:43:43;6.20;;;4.00;;
44728;SDS011;30457;53.590;9.922;2023-05-10T21:48:09;7.55;;;4.45;;
44728;SDS011;30457;53.590;9.922;2023-05-10T21:52:37;5.10;;;3.70;;
44728;SDS011;30457;53.590;9.922;2023-05-10T21:57:03;5.38;;;3.95;;
44728;SDS011;30457;53.590;9.922;2023-05-10T22:01:29;6.40;;;3.88;;
44728;SDS011;30457;53.590;9.922;2023-05-10T22:05:54;6.03;;;3.95;;
44728;SDS011;30457;53.590;9.922;2023-05-10T22:10:20;5.60;;;3.65;;
44728;SDS011;30457;53.590;9.922;2023-05-10T22:14:45;4.95;;;3.92;;
44728;SDS011;30457;53.590;9.922;2023-05-10T22:19:11;5.20;;;4.15;;
44728;SDS011;30457;53.590;9.922;2023-05-10T22:23:36;5.53;;;3.88;;
44728;SDS011;30457;53.590;9.922;2023-05-10T22:28:02;5.72;;;3.65;;
44728;SDS011;30457;53.590;9.922;2023-05-10T22:32:27;7.38;;;3.97;;
44728;SDS011;30457;53.590;9.922;2023-05-10T22:36:54;6.88;;;4.68;;
44728;SDS011;30457;53.590;9.922;2023-05-10T22:41:20;8.85;;;5.80;;
44728;SDS011;30457;53.590;9.922;2023-05-10T22:45:46;8.88;;;5.78;;
44728;SDS011;30457;53.590;9.922;2023-05-10T22:50:12;6.95;;;5.25;;
44728;SDS011;30457;53.590;9.922;2023-05-10T22:54:38;9.55;;;5.78;;
44728;SDS011;30457;53.590;9.922;2023-05-10T22:59:04;8.70;;;5.15;;
44728;SDS011;30457;53.590;9.922;2023-05-10T23:03:29;6.72;;;4.72;;
44728;SDS011;30457;53.590;9.922;2023-05-10T23:07:55;7.35;;;4.50;;
44728;SDS011;30457;53.590;9.922;2023-05-10T23:12:20;7.28;;;4.97;;
44728;SDS011;30457;53.590;9.922;2023-05-10T23:16:46;8.15;;;5.20;;
44728;SDS011;30457;53.590;9.922;2023-05-10T23:21:11;9.20;;;6.10;;
44728;SDS011;30457;53.590;9.922;2023-05-10T23:25:37;10.15;;;5.82;;
44728;SDS011;30457;53.590;9.922;2023-05-10T23:30:02;8.63;;;5.45;;
44728;SDS011;30457;53.590;9.922;2023-05-10T23:34:28;11.35;;;7.20;;
44728;SDS011;30457;53.590;9.922;2023-05-10T23:38:54;10.63;;;6.85;;
44728;SDS011;30457;53.590;9.922;2023-05-10T23:43:20;10.52;;;6.35;;
44728;SDS011;30457;53.590;9.922;2023-05-10T23:47:45;10.77;;;5.93;;
44728;SDS011;30457;53.590;9.922;2023-05-10T23:52:11;13.30;;;5.95;;
44728;SDS011;30457;53.590;9.922;2023-05-10T23:56:36;11.38;;;6.00;;
